createdAt,value
2018-03-17T00:00:48.775Z,4.80
2018-03-17T00:03:16.285Z,4.90
2018-03-17T00:05:43.772Z,4.80
2018-03-17T00:08:11.280Z,4.80
2018-03-17T00:10:38.764Z,4.90
2018-03-17T00:13:06.244Z,4.90
2018-03-17T00:15:33.761Z,4.90
2018-03-17T00:18:01.248Z,4.80
2018-03-17T00:20:28.764Z,4.70
2018-03-17T00:22:56.252Z,4.60
2018-03-17T00:25:23.764Z,4.50
2018-03-17T00:27:51.262Z,4.50
2018-03-17T00:30:18.768Z,4.50
2018-03-17T00:32:46.257Z,4.50
2018-03-17T00:35:15.540Z,4.40
2018-03-17T00:37:43.026Z,4.40
2018-03-17T00:40:11.350Z,4.40
2018-03-17T00:42:38.839Z,4.40
2018-03-17T00:45:06.344Z,4.40
2018-03-17T00:47:33.836Z,4.40
2018-03-17T00:50:02.116Z,4.40
2018-03-17T00:52:30.379Z,4.40
2018-03-17T00:54:57.889Z,4.30
2018-03-17T00:57:26.199Z,4.40
2018-03-17T00:59:53.656Z,4.40
2018-03-17T01:02:21.904Z,4.40
2018-03-17T01:04:49.412Z,4.30
2018-03-17T01:07:17.675Z,4.40
2018-03-17T01:09:45.155Z,4.30
2018-03-17T01:12:12.653Z,4.40
2018-03-17T01:14:40.136Z,4.30
2018-03-17T01:17:07.644Z,4.40
2018-03-17T01:19:35.130Z,4.40
2018-03-17T01:22:02.644Z,4.40
2018-03-17T01:24:30.129Z,4.30
2018-03-17T01:26:57.640Z,4.30
2018-03-17T01:29:25.128Z,4.20
2018-03-17T01:31:53.401Z,4.20
2018-03-17T01:34:20.884Z,4.10
2018-03-17T01:36:49.148Z,4.20
2018-03-17T01:39:16.641Z,4.10
2018-03-17T01:41:44.915Z,4.10
2018-03-17T01:44:12.400Z,4.10
2018-03-17T01:46:40.659Z,4.10
2018-03-17T01:49:08.144Z,4.00
2018-03-17T01:51:35.644Z,4.00
2018-03-17T01:54:14.875Z,4.00
2018-03-17T01:56:43.144Z,4.20
2018-03-17T01:59:10.624Z,4.10
2018-03-17T02:01:38.901Z,4.00
2018-03-17T02:04:06.382Z,4.00
2018-03-17T02:06:33.871Z,4.00
2018-03-17T02:09:02.143Z,3.90
2018-03-17T02:11:30.388Z,3.90
2018-03-17T02:13:58.501Z,3.80
2018-03-17T02:16:25.988Z,4.00
2018-03-17T02:18:54.253Z,4.00
2018-03-17T02:21:21.743Z,3.90
2018-03-17T02:23:50.012Z,4.00
2018-03-17T02:26:17.510Z,3.90
2018-03-17T02:28:45.792Z,3.90
2018-03-17T02:31:14.054Z,3.80
2018-03-17T02:33:41.565Z,3.80
2018-03-17T02:36:09.052Z,3.80
2018-03-17T02:38:36.573Z,3.80
2018-03-17T02:41:04.060Z,3.80
2018-03-17T02:43:32.308Z,3.80
2018-03-17T02:45:59.817Z,3.70
2018-03-17T02:48:28.078Z,3.80
2018-03-17T02:50:55.591Z,3.70
2018-03-17T02:53:23.084Z,3.80
2018-03-17T02:55:50.584Z,3.70
2018-03-17T02:58:18.064Z,3.60
2018-03-17T03:00:45.568Z,3.70
2018-03-17T03:03:13.824Z,3.80
2018-03-17T03:05:41.325Z,3.70
2018-03-17T03:08:09.576Z,3.70
2018-03-17T03:10:37.072Z,3.70
2018-03-17T03:13:04.556Z,3.70
2018-03-17T03:15:32.836Z,3.60
2018-03-17T03:18:01.119Z,3.70
2018-03-17T03:20:29.378Z,3.70
2018-03-17T03:22:56.898Z,3.60
2018-03-17T03:25:24.394Z,3.70
2018-03-17T03:27:51.910Z,3.70
2018-03-17T03:30:19.393Z,3.70
2018-03-17T03:32:47.677Z,3.50
2018-03-17T03:35:15.940Z,3.40
2018-03-17T03:37:43.443Z,3.40
2018-03-17T03:40:11.688Z,3.50
2018-03-17T03:42:39.198Z,3.50
2018-03-17T03:45:07.461Z,3.50
2018-03-17T03:47:34.973Z,3.40
2018-03-17T03:50:02.469Z,3.40
2018-03-17T03:52:30.056Z,3.50
2018-03-17T03:54:57.560Z,3.40
2018-03-17T03:57:25.044Z,3.40
2018-03-17T03:59:53.312Z,3.30
2018-03-17T04:02:29.007Z,3.20
2018-03-17T04:04:56.512Z,3.30
2018-03-17T04:07:23.997Z,3.20
2018-03-17T04:09:51.508Z,3.30
2018-03-17T04:12:19.761Z,3.20
2018-03-17T04:14:47.280Z,3.10
2018-03-17T04:17:14.773Z,3.10
2018-03-17T04:19:42.284Z,3.30
2018-03-17T04:22:09.783Z,3.30
2018-03-17T04:24:37.292Z,3.20
2018-03-17T04:27:04.776Z,3.20
2018-03-17T04:29:32.284Z,3.10
2018-03-17T04:32:00.539Z,3.10
2018-03-17T04:34:28.053Z,3.00
2018-03-17T04:36:55.539Z,3.20
2018-03-17T04:39:23.043Z,3.10
2018-03-17T04:41:50.537Z,3.00
2018-03-17T04:44:18.081Z,3.10
2018-03-17T04:46:45.572Z,3.10
2018-03-17T04:49:13.059Z,3.00
2018-03-17T04:51:41.328Z,3.10
2018-03-17T04:54:08.822Z,3.00
2018-03-17T04:56:37.092Z,3.10
2018-03-17T04:59:04.593Z,3.00
2018-03-17T05:01:32.113Z,3.00
2018-03-17T05:03:59.600Z,3.00
2018-03-17T05:06:27.169Z,2.90
2018-03-17T05:08:54.619Z,2.90
2018-03-17T05:11:22.134Z,3.00
2018-03-17T05:13:50.399Z,3.00
2018-03-17T05:16:17.907Z,2.90
2018-03-17T05:18:45.406Z,3.00
2018-03-17T05:21:12.906Z,2.90
2018-03-17T05:23:40.399Z,2.90
2018-03-17T05:26:08.698Z,2.90
2018-03-17T05:28:36.954Z,2.90
2018-03-17T05:31:04.435Z,2.80
2018-03-17T05:33:32.720Z,2.80
2018-03-17T05:36:00.214Z,2.70
2018-03-17T05:38:28.498Z,2.70
2018-03-17T05:40:55.992Z,2.70
2018-03-17T05:43:23.497Z,2.70
2018-03-17T05:45:50.992Z,2.70
2018-03-17T05:48:19.452Z,2.70
2018-03-17T05:50:46.952Z,2.70
2018-03-17T05:53:14.465Z,2.70
2018-03-17T05:55:41.948Z,2.80
2018-03-17T05:58:09.456Z,2.80
2018-03-17T06:00:36.954Z,2.80
2018-03-17T06:03:05.237Z,2.70
2018-03-17T06:05:33.493Z,2.70
2018-03-17T06:08:01.009Z,2.70
2018-03-17T06:10:28.496Z,2.70
2018-03-17T06:12:56.768Z,2.70
2018-03-17T06:15:24.262Z,2.60
2018-03-17T06:17:51.739Z,2.70
2018-03-17T06:20:19.242Z,2.70
2018-03-17T06:22:46.729Z,2.70
2018-03-17T06:25:14.237Z,2.70
2018-03-17T06:30:38.292Z,2.60
2018-03-17T06:33:05.787Z,2.60
2018-03-17T06:35:33.301Z,2.60
2018-03-17T06:38:00.785Z,2.50
2018-03-17T06:40:28.291Z,2.50
2018-03-17T06:42:55.783Z,2.50
2018-03-17T06:45:24.049Z,2.50
2018-03-17T06:47:51.538Z,2.40
2018-03-17T06:50:19.051Z,2.50
2018-03-17T06:52:46.650Z,2.50
2018-03-17T06:55:14.180Z,2.40
2018-03-17T06:57:41.672Z,2.30
2018-03-17T07:00:09.407Z,2.40
2018-03-17T07:02:37.668Z,2.50
2018-03-17T07:05:05.152Z,2.40
2018-03-17T07:07:33.430Z,2.50
2018-03-17T07:10:01.010Z,2.40
2018-03-17T07:12:29.292Z,2.50
2018-03-17T07:14:56.781Z,2.40
2018-03-17T07:17:25.065Z,2.50
2018-03-17T07:19:53.315Z,2.50
2018-03-17T07:22:20.813Z,2.40
2018-03-17T07:24:52.984Z,2.40
2018-03-17T07:27:20.514Z,2.40
2018-03-17T07:29:48.012Z,2.40
2018-03-17T07:32:15.516Z,2.40
2018-03-17T07:34:43.777Z,2.50
2018-03-17T07:37:11.650Z,2.40
2018-03-17T07:39:39.149Z,2.50
2018-03-17T07:42:07.437Z,2.40
2018-03-17T07:44:35.688Z,2.50
2018-03-17T07:47:03.200Z,2.40
2018-03-17T07:49:31.452Z,2.40
2018-03-17T07:51:58.945Z,2.30
2018-03-17T07:54:26.452Z,2.40
2018-03-17T07:56:53.952Z,2.50
2018-03-17T07:59:21.494Z,2.50
2018-03-17T08:01:48.976Z,2.50
2018-03-17T08:04:16.490Z,2.50
2018-03-17T08:06:44.101Z,2.50
2018-03-17T08:09:11.625Z,2.50
2018-03-17T08:11:39.119Z,2.60
2018-03-17T08:14:07.401Z,2.60
2018-03-17T08:16:34.894Z,2.50
2018-03-17T08:19:02.491Z,2.50
2018-03-17T08:21:29.988Z,2.40
2018-03-17T08:23:57.468Z,2.50
2018-03-17T08:26:24.973Z,2.50
2018-03-17T08:28:53.238Z,2.50
2018-03-17T08:31:20.736Z,2.40
2018-03-17T08:33:48.234Z,2.40
2018-03-17T08:36:15.745Z,2.40
2018-03-17T08:38:43.224Z,2.30
2018-03-17T08:41:10.733Z,2.30
2018-03-17T08:43:38.235Z,2.30
2018-03-17T08:46:05.753Z,2.40
2018-03-17T08:48:34.009Z,2.40
2018-03-17T08:51:01.518Z,2.40
2018-03-17T08:53:29.015Z,2.40
2018-03-17T08:55:56.524Z,2.50
2018-03-17T08:58:24.026Z,2.60
2018-03-17T09:00:51.524Z,2.60
2018-03-17T09:03:19.017Z,2.60
2018-03-17T09:05:46.517Z,2.50
2018-03-17T09:08:14.021Z,2.40
2018-03-17T09:10:41.528Z,2.50
2018-03-17T09:13:09.031Z,2.50
2018-03-17T09:15:36.522Z,2.40
2018-03-17T09:18:04.035Z,2.40
2018-03-17T09:20:31.520Z,2.40
2018-03-17T09:22:59.020Z,2.40
2018-03-17T09:25:27.264Z,2.40
2018-03-17T09:27:54.775Z,2.30
2018-03-17T09:30:23.028Z,2.40
2018-03-17T09:32:50.540Z,2.40
2018-03-17T09:35:18.806Z,2.40
2018-03-17T09:37:46.308Z,2.40
2018-03-17T09:40:13.796Z,2.40
2018-03-17T09:42:41.314Z,2.40
2018-03-17T09:45:08.813Z,2.30
2018-03-17T09:47:37.088Z,2.40
2018-03-17T09:50:05.339Z,2.40
2018-03-17T09:52:32.820Z,2.40
2018-03-17T09:55:00.336Z,2.40
2018-03-17T09:57:27.829Z,2.30
2018-03-17T09:59:55.348Z,2.30
2018-03-17T10:02:22.847Z,2.20
2018-03-17T10:04:50.382Z,2.20
2018-03-17T10:07:17.876Z,2.30
2018-03-17T10:09:46.153Z,2.40
2018-03-17T10:12:14.409Z,2.30
2018-03-17T10:14:41.924Z,2.30
2018-03-17T10:17:10.182Z,2.30
2018-03-17T10:19:37.706Z,2.20
2018-03-17T10:22:05.200Z,2.20
2018-03-17T10:24:32.704Z,2.30
2018-03-17T10:27:00.214Z,2.30
2018-03-17T10:29:27.786Z,2.30
2018-03-17T10:31:55.238Z,2.40
2018-03-17T10:34:22.769Z,2.50
2018-03-17T10:36:50.254Z,2.50
2018-03-17T10:39:17.746Z,2.40
2018-03-17T10:41:45.249Z,2.40
2018-03-17T10:44:12.741Z,2.20
2018-03-17T10:46:40.244Z,2.20
2018-03-17T10:49:08.504Z,2.20
2018-03-17T10:51:36.005Z,2.20
2018-03-17T10:54:04.272Z,2.10
2018-03-17T10:56:31.798Z,2.00
2018-03-17T10:58:59.288Z,2.10
2018-03-17T11:01:26.796Z,2.20
2018-03-17T11:03:54.284Z,2.20
2018-03-17T11:06:22.565Z,2.10
2018-03-17T11:08:50.812Z,2.10
2018-03-17T11:11:18.334Z,2.10
2018-03-17T11:13:46.672Z,2.00
2018-03-17T11:16:14.191Z,2.00
2018-03-17T11:18:42.444Z,2.10
2018-03-17T11:21:09.938Z,2.00
2018-03-17T11:23:37.465Z,2.00
2018-03-17T11:26:04.954Z,2.00
2018-03-17T11:28:32.477Z,1.90
2018-03-17T11:30:59.976Z,1.80
2018-03-17T11:33:27.490Z,1.70
2018-03-17T11:35:55.741Z,1.70
2018-03-17T11:38:23.249Z,1.60
2018-03-17T11:40:51.509Z,1.60
2018-03-17T11:43:19.024Z,1.50
2018-03-17T11:45:47.291Z,1.80
2018-03-17T11:48:15.573Z,1.90
2018-03-17T11:50:43.060Z,1.80
2018-03-17T11:53:11.333Z,1.90
2018-03-17T11:55:38.826Z,1.80
2018-03-17T11:58:07.086Z,1.90
2018-03-17T12:00:34.592Z,1.90
2018-03-17T12:03:02.081Z,1.80
2018-03-17T12:05:29.589Z,1.70
2018-03-17T12:07:57.104Z,1.80
2018-03-17T12:10:24.622Z,1.80
2018-03-17T12:12:52.132Z,1.80
2018-03-17T12:15:20.400Z,1.90
2018-03-17T12:17:47.889Z,1.80
2018-03-17T12:20:16.169Z,2.10
2018-03-17T12:22:44.435Z,2.10
2018-03-17T12:25:11.937Z,2.00
2018-03-17T12:27:39.440Z,2.00
2018-03-17T12:30:06.937Z,1.80
2018-03-17T12:32:34.445Z,1.90
2018-03-17T12:35:01.948Z,1.90
2018-03-17T12:37:29.448Z,1.90
2018-03-17T12:39:56.938Z,1.80
2018-03-17T12:42:24.450Z,1.80
2018-03-17T12:44:51.940Z,1.80
2018-03-17T12:47:19.449Z,1.80
2018-03-17T12:49:46.945Z,1.80
2018-03-17T12:52:14.460Z,1.70
2018-03-17T12:54:41.940Z,1.60
2018-03-17T12:57:09.438Z,1.60
2018-03-17T12:59:36.945Z,1.50
2018-03-17T13:02:04.440Z,1.50
2018-03-17T13:04:31.962Z,1.50
2018-03-17T13:06:59.444Z,1.40
2018-03-17T13:09:26.961Z,1.50
2018-03-17T13:11:54.465Z,1.60
2018-03-17T13:14:22.751Z,1.50
2018-03-17T13:16:51.027Z,1.50
2018-03-17T13:19:31.205Z,1.50
2018-03-17T13:21:59.457Z,1.60
2018-03-17T13:24:26.975Z,1.50
2018-03-17T13:27:06.413Z,1.50
2018-03-17T13:29:34.698Z,1.40
2018-03-17T13:32:02.193Z,1.30
2018-03-17T13:34:30.463Z,1.30
2018-03-17T13:37:10.708Z,1.20
2018-03-17T13:39:38.255Z,1.20
2018-03-17T13:42:05.754Z,1.40
2018-03-17T13:44:33.281Z,1.50
2018-03-17T13:47:00.782Z,1.50
2018-03-17T13:49:28.296Z,1.50
2018-03-17T13:51:56.557Z,1.30
2018-03-17T13:54:24.045Z,1.30
2018-03-17T13:56:52.316Z,1.30
2018-03-17T13:59:19.814Z,1.30
2018-03-17T14:01:47.339Z,1.30
2018-03-17T14:04:14.827Z,1.40
2018-03-17T14:06:42.342Z,1.30
2018-03-17T14:09:09.832Z,1.30
2018-03-17T14:11:37.340Z,1.40
2018-03-17T14:14:04.827Z,1.50
2018-03-17T14:16:33.141Z,1.40
2018-03-17T14:19:00.646Z,1.40
2018-03-17T14:21:28.162Z,1.50
2018-03-17T14:23:56.455Z,1.30
2018-03-17T14:26:23.970Z,1.20
2018-03-17T14:28:51.470Z,1.30
2018-03-17T14:31:18.994Z,1.20
2018-03-17T14:33:46.488Z,1.20
2018-03-17T14:36:13.994Z,1.30
2018-03-17T14:38:42.281Z,1.20
2018-03-17T14:41:09.777Z,1.10
2018-03-17T14:43:37.303Z,1.30
2018-03-17T14:46:04.816Z,1.30
2018-03-17T14:48:32.342Z,1.20
2018-03-17T14:50:59.839Z,1.20
2018-03-17T14:53:28.131Z,1.30
2018-03-17T14:55:56.429Z,1.30
2018-03-17T14:58:24.713Z,1.30
2018-03-17T15:00:52.981Z,1.30
2018-03-17T15:03:20.487Z,1.30
2018-03-17T15:05:47.989Z,1.20
2018-03-17T15:08:15.496Z,1.10
2018-03-17T15:10:43.006Z,1.00
2018-03-17T15:13:10.517Z,1.10
2018-03-17T15:15:38.041Z,1.10
2018-03-17T15:18:05.536Z,1.00
2018-03-17T15:20:33.054Z,1.00
2018-03-17T15:23:00.554Z,1.00
2018-03-17T15:25:28.072Z,1.00
2018-03-17T15:27:55.564Z,0.80
2018-03-17T15:30:23.845Z,0.90
2018-03-17T15:32:52.116Z,0.90
2018-03-17T15:35:19.633Z,0.90
2018-03-17T15:37:47.126Z,0.90
2018-03-17T15:40:14.652Z,1.00
2018-03-17T15:42:42.921Z,1.10
2018-03-17T15:45:10.449Z,1.00
2018-03-17T15:47:37.953Z,1.10
2018-03-17T15:50:05.454Z,1.10
2018-03-17T15:52:33.736Z,0.90
2018-03-17T15:55:01.251Z,0.90
2018-03-17T15:57:28.777Z,0.90
2018-03-17T15:59:56.288Z,0.80
2018-03-17T16:02:23.789Z,0.90
2018-03-17T16:04:51.282Z,0.90
2018-03-17T16:07:18.797Z,0.90
2018-03-17T16:09:46.298Z,0.80
2018-03-17T16:12:13.812Z,0.90
2018-03-17T16:14:42.073Z,0.70
2018-03-17T16:17:09.593Z,0.60
2018-03-17T16:19:37.116Z,0.70
2018-03-17T16:22:04.646Z,0.70
2018-03-17T16:24:32.146Z,0.70
2018-03-17T16:26:59.655Z,0.70
2018-03-17T16:29:27.944Z,0.80
2018-03-17T16:31:56.211Z,0.80
2018-03-17T16:34:24.666Z,0.70
2018-03-17T16:42:43.317Z,0.70
2018-03-17T16:45:10.836Z,0.60
2018-03-17T16:47:38.339Z,0.60
2018-03-17T16:50:05.863Z,0.70
2018-03-17T16:52:36.070Z,0.60
2018-03-17T16:55:03.606Z,0.60
2018-03-17T16:57:31.106Z,0.60
2018-03-17T16:59:58.634Z,0.60
2018-03-17T17:02:26.135Z,0.60
2018-03-17T17:04:53.644Z,0.70
2018-03-17T17:07:21.905Z,0.70
2018-03-17T17:09:49.437Z,0.60
2018-03-17T17:12:16.932Z,0.70
2018-03-17T17:14:44.434Z,0.70
2018-03-17T17:17:11.969Z,0.70
2018-03-17T17:19:39.475Z,0.70
2018-03-17T17:22:07.008Z,0.70
2018-03-17T17:24:34.500Z,0.70
2018-03-17T17:27:02.028Z,0.70
2018-03-17T17:29:29.532Z,0.60
2018-03-17T17:31:57.040Z,0.60
2018-03-17T17:34:24.540Z,0.50
2018-03-17T17:36:52.069Z,0.50
2018-03-17T17:39:19.557Z,0.50
2018-03-17T17:41:47.845Z,0.60
2018-03-17T17:44:16.105Z,0.60
2018-03-17T17:46:43.629Z,0.50
2018-03-17T17:49:11.133Z,0.60
2018-03-17T17:51:38.658Z,0.60
2018-03-17T17:54:06.160Z,0.60
2018-03-17T17:56:33.688Z,0.60
2018-03-17T17:59:01.946Z,0.60
2018-03-17T18:01:29.492Z,0.50
2018-03-17T18:03:56.993Z,0.60
2018-03-17T18:06:24.496Z,0.50
2018-03-17T18:08:52.760Z,0.50
2018-03-17T18:11:20.259Z,0.40
2018-03-17T18:13:47.782Z,0.50
2018-03-17T18:16:15.281Z,0.50
2018-03-17T18:18:43.574Z,0.50
2018-03-17T18:21:11.844Z,0.60
2018-03-17T18:23:39.375Z,0.50
2018-03-17T18:26:06.868Z,0.50
2018-03-17T18:28:34.381Z,0.40
2018-03-17T18:31:02.642Z,0.40
2018-03-17T18:33:30.165Z,0.30
2018-03-17T18:35:57.658Z,0.40
2018-03-17T18:38:25.165Z,0.30
2018-03-17T18:40:52.656Z,0.20
2018-03-17T18:43:20.933Z,0.30
2018-03-17T18:45:49.202Z,0.30
2018-03-17T18:48:16.711Z,0.20
2018-03-17T18:50:44.212Z,0.20
2018-03-17T18:53:11.725Z,0.20
2018-03-17T19:01:25.597Z,0.10
2018-03-17T19:03:53.104Z,0.20
2018-03-17T19:06:20.603Z,0.10
2018-03-17T19:08:48.885Z,0.10
2018-03-17T19:11:17.137Z,0.10
2018-03-17T19:13:44.632Z,0.10
2018-03-17T19:16:12.148Z,0.10
2018-03-17T19:18:39.645Z,0.00
2018-03-17T19:21:07.157Z,0.00
2018-03-17T19:23:35.407Z,0.10
2018-03-17T19:26:02.934Z,0.00
2018-03-17T19:28:30.443Z,0.00
2018-03-17T19:30:57.961Z,0.00
2018-03-17T19:33:25.483Z,0.00
2018-03-17T19:35:52.985Z,0.00
2018-03-17T19:38:21.241Z,0.10
2018-03-17T19:40:48.773Z,0.00
2018-03-17T19:43:16.273Z,0.10
2018-03-17T19:45:43.797Z,-0.10
2018-03-17T19:48:12.066Z,0.00
2018-03-17T19:50:39.584Z,-0.10
2018-03-17T19:53:07.073Z,0.00
2018-03-17T19:55:34.595Z,0.00
2018-03-17T19:58:02.850Z,0.00
2018-03-17T20:00:30.343Z,0.00
2018-03-17T20:02:58.620Z,0.00
2018-03-17T20:05:26.109Z,-0.10
2018-03-17T20:07:54.386Z,0.00
2018-03-17T20:10:21.881Z,-0.10
2018-03-17T20:12:49.397Z,-0.10
2018-03-17T20:15:16.907Z,-0.20
2018-03-17T20:17:45.192Z,-0.20
2018-03-17T20:20:13.460Z,-0.20
2018-03-17T20:22:40.976Z,-0.20
2018-03-17T20:25:08.473Z,-0.20
2018-03-17T20:27:36.003Z,-0.10
2018-03-17T20:30:04.275Z,0.00
2018-03-17T20:32:32.578Z,-0.10
2018-03-17T20:35:00.076Z,-0.10
2018-03-17T20:37:27.600Z,0.00
2018-03-17T20:39:55.108Z,0.00
2018-03-17T20:42:22.617Z,0.00
2018-03-17T20:44:50.114Z,-0.10
2018-03-17T20:47:18.400Z,-0.10
2018-03-17T20:49:45.892Z,-0.20
2018-03-17T20:52:14.181Z,-0.10
2018-03-17T20:54:42.453Z,-0.20
2018-03-17T20:57:10.745Z,-0.20
2018-03-17T20:59:38.294Z,-0.30
2018-03-17T21:02:05.843Z,-0.20
2018-03-17T21:04:33.336Z,-0.20
2018-03-17T21:07:00.853Z,-0.20
2018-03-17T21:09:28.345Z,-0.20
2018-03-17T21:11:55.867Z,-0.20
2018-03-17T21:14:24.128Z,-0.10
2018-03-17T21:16:51.652Z,-0.20
2018-03-17T21:19:32.208Z,-0.10
2018-03-17T21:22:00.485Z,-0.10
2018-03-17T21:24:27.969Z,-0.20
2018-03-17T21:26:56.246Z,-0.10
2018-03-17T21:29:24.520Z,-0.10
2018-03-17T21:31:52.061Z,-0.10
2018-03-17T21:34:19.557Z,0.00
2018-03-17T21:36:47.094Z,0.00
2018-03-17T21:39:14.583Z,0.00
2018-03-17T21:41:42.110Z,0.00
2018-03-17T21:44:09.603Z,0.00
2018-03-17T21:46:37.889Z,-0.20
2018-03-17T21:49:05.389Z,-0.20
2018-03-17T21:51:32.920Z,-0.10
2018-03-17T21:54:00.430Z,-0.10
2018-03-17T21:56:27.929Z,-0.10
2018-03-17T21:58:55.455Z,-0.20
2018-03-17T22:01:22.947Z,-0.20
2018-03-17T22:03:50.464Z,-0.20
2018-03-17T22:06:17.968Z,-0.20
2018-03-17T22:08:45.487Z,-0.20
2018-03-17T22:11:13.761Z,-0.20
2018-03-17T22:13:41.347Z,-0.20
2018-03-17T22:16:08.810Z,-0.20
2018-03-17T22:18:36.329Z,-0.20
2018-03-17T22:21:03.833Z,-0.30
2018-03-17T22:23:31.355Z,-0.30
2018-03-17T22:25:58.854Z,-0.40
2018-03-17T22:28:26.402Z,-0.30
2018-03-17T22:30:53.879Z,-0.30
2018-03-17T22:33:21.396Z,-0.30
2018-03-17T22:35:48.898Z,-0.30
2018-03-17T22:38:16.412Z,-0.30
2018-03-17T22:40:43.904Z,-0.30
2018-03-17T22:43:11.426Z,-0.40
2018-03-17T22:45:38.990Z,-0.30
2018-03-17T22:48:06.514Z,-0.30
2018-03-17T22:50:34.013Z,-0.30
2018-03-17T22:53:02.307Z,-0.30
2018-03-17T22:55:29.808Z,-0.40
2018-03-17T22:57:57.324Z,-0.30
2018-03-17T23:00:39.762Z,-0.30
2018-03-17T23:03:08.044Z,-0.60
2018-03-17T23:05:35.542Z,-0.60
2018-03-17T23:08:03.060Z,-0.50
2018-03-17T23:10:30.557Z,-0.50
2018-03-17T23:12:58.839Z,-0.60
2018-03-17T23:15:26.371Z,-0.70
2018-03-17T23:17:53.877Z,-0.70
2018-03-17T23:20:21.380Z,-0.70
2018-03-17T23:22:48.891Z,-0.80
2018-03-17T23:25:16.389Z,-0.80
2018-03-17T23:27:43.900Z,-0.70
2018-03-17T23:30:11.405Z,-0.70
2018-03-17T23:32:38.911Z,-0.70
2018-03-17T23:35:07.178Z,-0.70
2018-03-17T23:37:34.696Z,-0.70
2018-03-17T23:40:02.199Z,-0.70
2018-03-17T23:42:29.716Z,-0.70
2018-03-17T23:44:57.980Z,-0.60
2018-03-17T23:47:25.495Z,-0.70
2018-03-17T23:49:53.002Z,-0.60
2018-03-17T23:52:20.528Z,-0.70
2018-03-17T23:54:48.043Z,-0.70
2018-03-17T23:57:15.569Z,-0.60
2018-03-17T23:59:43.077Z,-0.50
